Time;durP1;ratioP1;P1;durP2;ratioP2;P2;SDS_P1;SDS_P2;PMS_P1;PMS_P2;Temp;Humidity;BMP_temperature;BMP_pressure;BME280_temperature;BME280_humidity;BME280_pressure;Samples;Min_cycle;Max_cycle;Signal;HPM_P1;HPM_P2
2023/03/14 00:01:07;;;;;;;;;;;;;;;;;;5093890;28;995;-71
2023/03/14 00:03:32;;;;;;;;;;;;;;;;;;5092709;28;1134;-71
2023/03/14 00:06:01;;;;;;;;;;;;;;;;;;5092569;28;883;-71
2023/03/14 00:08:26;;;;;;;;;;;;;;;;;;5092406;28;1961;-71
2023/03/14 00:10:51;;;;;;;;;;;;;;;;;;5092398;28;864;-72
2023/03/14 00:13:17;;;;;;;;;;;;;;;;;;5091856;28;813;-71
2023/03/14 00:15:42;;;;;;;;;;;;;;;;;;5075744;28;1185;-71
2023/03/14 00:18:07;;;;;;;;;;;;;;;;;;5092682;28;881;-70
2023/03/14 00:20:32;;;;;;;;;;;;;;;;;;5093556;28;1093;-70
2023/03/14 00:22:58;;;;;;;;;;;;;;;;;;5092540;28;769;-71
2023/03/14 00:25:23;;;;;;;;;;;;;;;;;;5091916;28;1142;-70
2023/03/14 00:27:50;;;;;;;;;;;;;;;;;;5093057;28;1975;-71
2023/03/14 00:30:15;;;;;;;;;;;;;;;;;;5093596;28;817;-70
2023/03/14 00:32:41;;;;;;;;;;;;;;;;;;5075103;28;1082;-70
2023/03/14 00:35:06;;;;;;;;;;;;;;;;;;5091969;28;1175;-71
2023/03/14 00:37:32;;;;;;;;;;;;;;;;;;5093484;28;824;-71
2023/03/14 00:39:58;;;;;;;;;;;;;;;;;;5093448;28;868;-71
2023/03/14 00:42:23;;;;;;;;;;;;;;;;;;5075482;28;1222;-71
2023/03/14 00:44:49;;;;;;;;;;;;;;;;;;5093682;28;828;-71
2023/03/14 00:47:14;;;;;;;;;;;;;;;;;;5092295;28;1910;-71
2023/03/14 00:49:39;;;;;;;;;;;;;;;;;;5093056;28;845;-71
2023/03/14 00:52:04;;;;;;;;;;;;;;;;;;5091943;28;1288;-71
2023/03/14 00:54:30;;;;;;;;;;;;;;;;;;5092018;28;908;-71
2023/03/14 00:56:55;;;;;;;;;;;;;;;;;;5075026;28;1187;-71
2023/03/14 00:59:21;;;;;;;;;;;;;;;;;;5091889;28;844;-71
2023/03/14 01:01:46;;;;;;;;;;;;;;;;;;5091334;28;1170;-71
2023/03/14 01:04:11;;;;;;;;;;;;;;;;;;5090946;28;1134;-71
2023/03/14 01:06:37;;;;;;;;;;;;;;;;;;5092778;28;797;-71
2023/03/14 01:09:02;;;;;;;;;;;;;;;;;;5090847;28;1957;-71
2023/03/14 01:11:29;;;;;;;;;;;;;;;;;;5092804;28;833;-71
2023/03/14 01:13:54;;;;;;;;;;;;;;;;;;5092657;28;916;-71
2023/03/14 01:16:21;;;;;;;;;;;;;;;;;;5090966;28;939;-71
2023/03/14 01:18:48;;;;;;;;;;;;;;;;;;5091039;28;1245;-71
2023/03/14 01:21:15;;;;;;;;;;;;;;;;;;5092448;28;916;-71
2023/03/14 01:23:41;;;;;;;;;;;;;;;;;;5091907;28;824;-71
2023/03/14 01:26:14;;;;;;;;;;;;;;;;;;5090737;28;1299;-71
2023/03/14 01:28:40;;;;;;;;;;;;;;;;;;5092210;28;2011;-71
2023/03/14 01:31:06;;;;;;;;;;;;;;;;;;5092298;28;825;-71
2023/03/14 01:33:32;;;;;;;;;;;;;;;;;;5074015;28;1323;-71
2023/03/14 01:35:57;;;;;;;;;;;;;;;;;;5092021;28;860;-71
2023/03/14 01:38:22;;;;;;;;;;;;;;;;;;5090979;28;852;-71
2023/03/14 01:40:47;;;;;;;;;;;;;;;;;;5091890;28;991;-71
2023/03/14 01:43:17;;;;;;;;;;;;;;;;;;5091897;28;833;-71
2023/03/14 01:45:58;;;;;;;;;;;;;;;;;;5091908;28;864;-71
2023/03/14 01:48:24;;;;;;;;;;;;;;;;;;5091986;28;1901;-72
2023/03/14 01:50:50;;;;;;;;;;;;;;;;;;5092025;28;813;-70
2023/03/14 01:53:15;;;;;;;;;;;;;;;;;;5092371;28;836;-71
2023/03/14 01:55:40;;;;;;;;;;;;;;;;;;5073878;28;1284;-71
2023/03/14 01:58:06;;;;;;;;;;;;;;;;;;5090836;28;1017;-71
2023/03/14 02:00:32;;;;;;;;;;;;;;;;;;5074032;28;1163;-71
2023/03/14 02:03:06;;;;;;;;;;;;;;;;;;5092577;28;927;-71
2023/03/14 02:05:33;;;;;;;;;;;;;;;;;;5090607;28;1237;-71
2023/03/14 02:08:00;;;;;;;;;;;;;;;;;;5091035;28;1912;-71
2023/03/14 02:10:27;;;;;;;;;;;;;;;;;;5091880;28;1228;-71
2023/03/14 02:12:55;;;;;;;;;;;;;;;;;;5092015;28;833;-71
2023/03/14 02:15:20;;;;;;;;;;;;;;;;;;5092419;28;809;-71
2023/03/14 02:17:46;;;;;;;;;;;;;;;;;;5092236;28;817;-71
2023/03/14 02:20:11;;;;;;;;;;;;;;;;;;5092353;28;903;-72
2023/03/14 02:22:38;;;;;;;;;;;;;;;;;;5090529;28;1228;-71
2023/03/14 02:25:09;;;;;;;;;;;;;;;;;;5092091;28;1063;-71
2023/03/14 02:27:35;;;;;;;;;;;;;;;;;;5090408;28;1901;-72
2023/03/14 02:30:02;;;;;;;;;;;;;;;;;;5090296;28;1189;-72
2023/03/14 02:32:30;;;;;;;;;;;;;;;;;;5091512;28;1000;-72
2023/03/14 02:35:00;;;;;;;;;;;;;;;;;;5091571;28;840;-72
2023/03/14 02:37:34;;;;;;;;;;;;;;;;;;5093701;28;1162;-71
2023/03/14 02:39:59;;;;;;;;;;;;;;;;;;5094046;28;1198;-72
2023/03/14 02:42:25;;;;;;;;;;;;;;;;;;5077186;28;1139;-72
2023/03/14 02:44:52;;;;;;;;;;;;;;;;;;5095175;28;978;-72
2023/03/14 02:47:18;;;;;;;;;;;;;;;;;;5094059;28;1909;-71
2023/03/14 02:49:44;;;;;;;;;;;;;;;;;;5095069;28;896;-71
2023/03/14 02:52:09;;;;;;;;;;;;;;;;;;5077149;28;1180;-72
2023/03/14 02:54:34;;;;;;;;;;;;;;;;;;5094000;28;1277;-72
2023/03/14 02:57:00;;;;;;;;;;;;;;;;;;5093651;28;936;-72
2023/03/14 02:59:25;;;;;;;;;;;;;;;;;;5093865;28;924;-71
2023/03/14 03:01:50;;;;;;;;;;;;;;;;;;5093764;28;832;-71
2023/03/14 03:04:15;;;;;;;;;;;;;;;;;;5094985;28;816;-71
2023/03/14 03:06:42;;;;;;;;;;;;;;;;;;5076698;28;1206;-71
2023/03/14 03:09:07;;;;;;;;;;;;;;;;;;5093219;28;1963;-72
2023/03/14 03:11:32;;;;;;;;;;;;;;;;;;5093947;28;951;-72
2023/03/14 03:13:58;;;;;;;;;;;;;;;;;;5095046;28;836;-72
2023/03/14 03:16:23;;;;;;;;;;;;;;;;;;5094824;28;919;-71
2023/03/14 03:18:48;;;;;;;;;;;;;;;;;;5094773;28;903;-71
2023/03/14 03:21:13;;;;;;;;;;;;;;;;;;5094653;28;813;-71
2023/03/14 03:23:39;;;;;;;;;;;;;;;;;;5093089;28;1122;-72
2023/03/14 03:26:04;;;;;;;;;;;;;;;;;;5093371;28;1194;-71
2023/03/14 03:28:30;;;;;;;;;;;;;;;;;;5094520;28;1902;-72
2023/03/14 03:30:55;;;;;;;;;;;;;;;;;;5093165;28;961;-72
2023/03/14 03:33:22;;;;;;;;;;;;;;;;;;5093177;28;1019;-71
2023/03/14 03:35:50;;;;;;;;;;;;;;;;;;5094426;28;852;-72
2023/03/14 03:38:16;;;;;;;;;;;;;;;;;;5093115;28;1222;-71
2023/03/14 03:40:41;;;;;;;;;;;;;;;;;;5094379;28;853;-71
2023/03/14 03:43:07;;;;;;;;;;;;;;;;;;5094339;28;875;-72
2023/03/14 03:45:32;;;;;;;;;;;;;;;;;;5093151;28;888;-71
2023/03/14 03:47:57;;;;;;;;;;;;;;;;;;5092017;28;1930;-71
2023/03/14 03:50:22;;;;;;;;;;;;;;;;;;5094193;28;912;-72
2023/03/14 03:52:48;;;;;;;;;;;;;;;;;;5075892;28;1280;-72
2023/03/14 03:55:13;;;;;;;;;;;;;;;;;;5093338;28;1002;-73
2023/03/14 03:57:38;;;;;;;;;;;;;;;;;;5094108;28;979;-72
2023/03/14 04:00:05;;;;;;;;;;;;;;;;;;5093239;28;1014;-72
2023/03/14 04:02:30;;;;;;;;;;;;;;;;;;5094617;28;813;-72
2023/03/14 04:04:55;;;;;;;;;;;;;;;;;;5094125;28;840;-71
2023/03/14 04:07:20;;;;;;;;;;;;;;;;;;5076054;28;1965;-72
2023/03/14 04:09:46;;;;;;;;;;;;;;;;;;5093952;28;1238;-71
2023/03/14 04:12:12;;;;;;;;;;;;;;;;;;5094050;28;892;-71
2023/03/14 04:14:37;;;;;;;;;;;;;;;;;;5094207;28;939;-72
2023/03/14 04:17:03;;;;;;;;;;;;;;;;;;5094114;28;876;-72
2023/03/14 04:19:28;;;;;;;;;;;;;;;;;;5093830;28;844;-72
2023/03/14 04:21:53;;;;;;;;;;;;;;;;;;5092761;28;1092;-72
2023/03/14 04:24:18;;;;;;;;;;;;;;;;;;5092372;28;959;-71
2023/03/14 04:26:44;;;;;;;;;;;;;;;;;;5093479;28;939;-72
2023/03/14 04:29:09;;;;;;;;;;;;;;;;;;5093301;28;1971;-72
2023/03/14 04:31:34;;;;;;;;;;;;;;;;;;5093574;28;844;-71
2023/03/14 04:33:59;;;;;;;;;;;;;;;;;;5092777;28;840;-71
2023/03/14 04:36:25;;;;;;;;;;;;;;;;;;5091919;28;892;-71
2023/03/14 04:38:50;;;;;;;;;;;;;;;;;;5092820;28;888;-71
2023/03/14 04:41:15;;;;;;;;;;;;;;;;;;5092968;28;962;-72
2023/03/14 04:43:40;;;;;;;;;;;;;;;;;;5091604;28;999;-71
2023/03/14 04:46:06;;;;;;;;;;;;;;;;;;5093119;28;963;-71
2023/03/14 04:48:32;;;;;;;;;;;;;;;;;;5093396;28;1910;-71
2023/03/14 04:50:57;;;;;;;;;;;;;;;;;;5092875;28;943;-72
2023/03/14 04:53:22;;;;;;;;;;;;;;;;;;5091569;28;1284;-72
2023/03/14 04:55:52;;;;;;;;;;;;;;;;;;5093274;28;884;-71
2023/03/14 04:58:17;;;;;;;;;;;;;;;;;;5092560;28;923;-72
2023/03/14 05:00:42;;;;;;;;;;;;;;;;;;5092448;28;801;-72
2023/03/14 05:03:08;;;;;;;;;;;;;;;;;;5091548;28;875;-72
2023/03/14 05:05:33;;;;;;;;;;;;;;;;;;5074968;28;1259;-71
2023/03/14 05:07:58;;;;;;;;;;;;;;;;;;5092462;28;1969;-72
2023/03/14 05:10:24;;;;;;;;;;;;;;;;;;5092689;28;1449;-71
2023/03/14 05:12:50;;;;;;;;;;;;;;;;;;5091368;28;1352;-72
2023/03/14 05:15:15;;;;;;;;;;;;;;;;;;5092829;28;1022;-71
2023/03/14 05:17:42;;;;;;;;;;;;;;;;;;5092950;28;773;-71
2023/03/14 05:20:08;;;;;;;;;;;;;;;;;;5091460;28;758;-72
2023/03/14 05:22:34;;;;;;;;;;;;;;;;;;5092177;28;1202;-71
2023/03/14 05:24:59;;;;;;;;;;;;;;;;;;5092607;28;1023;-72
2023/03/14 05:27:24;;;;;;;;;;;;;;;;;;5092454;28;1905;-71
2023/03/14 05:29:49;;;;;;;;;;;;;;;;;;5093442;28;777;-71
2023/03/14 05:32:15;;;;;;;;;;;;;;;;;;5074440;28;1227;-71
2023/03/14 05:34:40;;;;;;;;;;;;;;;;;;5074588;28;1151;-72
2023/03/14 05:37:06;;;;;;;;;;;;;;;;;;5092390;28;717;-72
2023/03/14 05:39:32;;;;;;;;;;;;;;;;;;5102147;28;1275;-71
2023/03/14 05:41:57;;;;;;;;;;;;;;;;;;5096164;28;1295;-71
2023/03/14 05:44:22;;;;;;;;;;;;;;;;;;5096287;28;1214;-71
2023/03/14 05:46:48;;;;;;;;;;;;;;;;;;5090884;28;788;-71
2023/03/14 05:49:13;;;;;;;;;;;;;;;;;;5090343;28;1918;-71
2023/03/14 05:51:38;;;;;;;;;;;;;;;;;;5090624;28;951;-71
2023/03/14 05:54:03;;;;;;;;;;;;;;;;;;5090120;28;805;-71
2023/03/14 05:56:29;;;;;;;;;;;;;;;;;;5091543;28;809;-71
2023/03/14 05:58:54;;;;;;;;;;;;;;;;;;5090557;28;896;-71
2023/03/14 06:01:19;;;;;;;;;;;;;;;;;;5091033;28;1090;-71
2023/03/14 06:03:45;;;;;;;;;;;;;;;;;;5091912;28;900;-71
2023/03/14 06:06:10;;;;;;;;;;;;;;;;;;5074122;28;1466;-71
2023/03/14 06:08:35;;;;;;;;;;;;;;;;;;5092333;28;1971;-71
2023/03/14 06:11:03;;;;;;;;;;;;;;;;;;5092960;28;1096;-70
2023/03/14 06:13:28;;;;;;;;;;;;;;;;;;5096384;28;967;-71
2023/03/14 06:15:53;;;;;;;;;;;;;;;;;;5094809;28;927;-71
2023/03/14 06:18:18;;;;;;;;;;;;;;;;;;5077886;28;1242;-71
2023/03/14 06:20:44;;;;;;;;;;;;;;;;;;5096393;28;868;-71
2023/03/14 06:23:09;;;;;;;;;;;;;;;;;;5095682;28;912;-71
2023/03/14 06:25:35;;;;;;;;;;;;;;;;;;5077472;28;1186;-71
2023/03/14 06:28:00;;;;;;;;;;;;;;;;;;5095235;28;1959;-71
2023/03/14 06:30:26;;;;;;;;;;;;;;;;;;5096282;28;875;-71
2023/03/14 06:32:51;;;;;;;;;;;;;;;;;;5095585;28;967;-71
2023/03/14 06:35:16;;;;;;;;;;;;;;;;;;5093968;28;1174;-71
2023/03/14 06:37:42;;;;;;;;;;;;;;;;;;5096014;28;1104;-71
2023/03/14 06:40:08;;;;;;;;;;;;;;;;;;5095255;28;884;-71
2023/03/14 06:42:34;;;;;;;;;;;;;;;;;;5096415;28;832;-71
2023/03/14 06:45:00;;;;;;;;;;;;;;;;;;5096007;28;951;-71
2023/03/14 06:47:25;;;;;;;;;;;;;;;;;;5095433;28;1940;-71
2023/03/14 06:49:50;;;;;;;;;;;;;;;;;;5095860;28;907;-72
2023/03/14 06:52:15;;;;;;;;;;;;;;;;;;5097828;28;1203;-72
2023/03/14 06:54:41;;;;;;;;;;;;;;;;;;5114077;28;1172;-72
2023/03/14 06:57:06;;;;;;;;;;;;;;;;;;5116816;28;1033;-71
2023/03/14 06:59:32;;;;;;;;;;;;;;;;;;5114927;28;1272;-72
2023/03/14 07:01:57;;;;;;;;;;;;;;;;;;5116274;28;1162;-71
2023/03/14 07:04:22;;;;;;;;;;;;;;;;;;5095637;28;1317;-72
2023/03/14 07:06:47;;;;;;;;;;;;;;;;;;5103205;28;1269;-71
2023/03/14 07:09:13;;;;;;;;;;;;;;;;;;5098882;28;1970;-72
2023/03/14 07:11:38;;;;;;;;;;;;;;;;;;5096113;28;883;-71
2023/03/14 07:14:04;;;;;;;;;;;;;;;;;;5095841;28;900;-73
2023/03/14 07:16:32;;;;;;;;;;;;;;;;;;5095439;28;962;-71
2023/03/14 07:18:58;;;;;;;;;;;;;;;;;;5095183;28;895;-71
2023/03/14 07:21:23;;;;;;;;;;;;;;;;;;5095576;28;868;-71
2023/03/14 07:23:48;;;;;;;;;;;;;;;;;;5094275;28;922;-71
2023/03/14 07:26:13;;;;;;;;;;;;;;;;;;5092820;28;1261;-71
2023/03/14 07:28:39;;;;;;;;;;;;;;;;;;5094369;28;1976;-71
2023/03/14 07:31:04;;;;;;;;;;;;;;;;;;5093987;28;1002;-71
2023/03/14 07:33:30;;;;;;;;;;;;;;;;;;5094607;28;895;-71
2023/03/14 07:35:55;;;;;;;;;;;;;;;;;;5093911;28;896;-71
2023/03/14 07:38:20;;;;;;;;;;;;;;;;;;5092933;28;876;-71
2023/03/14 07:40:45;;;;;;;;;;;;;;;;;;5075876;28;1155;-71
2023/03/14 07:43:11;;;;;;;;;;;;;;;;;;5093971;28;872;-71
2023/03/14 07:45:36;;;;;;;;;;;;;;;;;;5094117;28;844;-71
2023/03/14 07:48:02;;;;;;;;;;;;;;;;;;5092512;28;1965;-71
2023/03/14 07:50:27;;;;;;;;;;;;;;;;;;5093863;28;824;-71
2023/03/14 07:52:53;;;;;;;;;;;;;;;;;;5092859;28;1236;-71
2023/03/14 07:55:18;;;;;;;;;;;;;;;;;;5093293;28;1010;-71
2023/03/14 07:57:44;;;;;;;;;;;;;;;;;;5093073;28;892;-71
2023/03/14 08:00:09;;;;;;;;;;;;;;;;;;5092197;28;1261;-71
2023/03/14 08:02:36;;;;;;;;;;;;;;;;;;5113531;28;1168;-71
2023/03/14 08:05:01;;;;;;;;;;;;;;;;;;5112423;28;1255;-70
2023/03/14 08:07:26;;;;;;;;;;;;;;;;;;5113173;28;1972;-70
2023/03/14 08:09:51;;;;;;;;;;;;;;;;;;5113077;28;1318;-70
2023/03/14 08:12:17;;;;;;;;;;;;;;;;;;5112931;28;916;-69
2023/03/14 08:14:42;;;;;;;;;;;;;;;;;;5113611;28;1289;-71
2023/03/14 08:17:08;;;;;;;;;;;;;;;;;;5112710;28;1296;-69
2023/03/14 08:19:33;;;;;;;;;;;;;;;;;;5112784;28;824;-69
2023/03/14 08:21:58;;;;;;;;;;;;;;;;;;5112879;28;1106;-69
2023/03/14 08:24:24;;;;;;;;;;;;;;;;;;5113861;28;967;-69
2023/03/14 08:26:49;;;;;;;;;;;;;;;;;;5112918;28;1052;-69
2023/03/14 08:29:14;;;;;;;;;;;;;;;;;;5112113;28;1909;-69
2023/03/14 08:31:39;;;;;;;;;;;;;;;;;;5113333;28;1123;-69
2023/03/14 08:34:06;;;;;;;;;;;;;;;;;;5095005;28;1174;-69
2023/03/14 08:36:32;;;;;;;;;;;;;;;;;;5096646;28;1273;-69
2023/03/14 08:38:57;;;;;;;;;;;;;;;;;;5112912;28;1154;-69
2023/03/14 08:41:22;;;;;;;;;;;;;;;;;;5113851;28;883;-69
2023/03/14 08:43:47;;;;;;;;;;;;;;;;;;5112920;28;991;-69
2023/03/14 08:46:13;;;;;;;;;;;;;;;;;;5112188;28;1221;-69
2023/03/14 08:48:38;;;;;;;;;;;;;;;;;;5113779;28;1890;-69
2023/03/14 08:51:04;;;;;;;;;;;;;;;;;;5095608;28;1388;-69
2023/03/14 08:53:29;;;;;;;;;;;;;;;;;;5113975;28;880;-69
2023/03/14 08:55:55;;;;;;;;;;;;;;;;;;5112546;28;967;-68
2023/03/14 08:58:21;;;;;;;;;;;;;;;;;;5111900;28;1293;-69
2023/03/14 09:00:46;;;;;;;;;;;;;;;;;;5112214;28;1193;-69
2023/03/14 09:03:11;;;;;;;;;;;;;;;;;;5111999;28;927;-69
2023/03/14 09:05:37;;;;;;;;;;;;;;;;;;5113343;28;903;-69
2023/03/14 09:08:02;;;;;;;;;;;;;;;;;;5111766;28;1909;-69
2023/03/14 09:10:28;;;;;;;;;;;;;;;;;;5112960;28;1342;-69
2023/03/14 09:12:53;;;;;;;;;;;;;;;;;;5112047;28;1182;-69
2023/03/14 09:15:18;;;;;;;;;;;;;;;;;;5113046;28;895;-69
2023/03/14 09:17:44;;;;;;;;;;;;;;;;;;5113457;28;918;-69
2023/03/14 09:20:10;;;;;;;;;;;;;;;;;;5112571;28;1039;-69
2023/03/14 09:22:36;;;;;;;;;;;;;;;;;;5113153;28;898;-69
2023/03/14 09:25:03;;;;;;;;;;;;;;;;;;5111879;28;1325;-69
2023/03/14 09:27:28;;;;;;;;;;;;;;;;;;5111575;28;1898;-69
2023/03/14 09:29:53;;;;;;;;;;;;;;;;;;5111530;28;836;-70
2023/03/14 09:32:19;;;;;;;;;;;;;;;;;;5112722;28;1086;-70
2023/03/14 09:34:44;;;;;;;;;;;;;;;;;;5111489;28;1221;-69
2023/03/14 09:37:09;;;;;;;;;;;;;;;;;;5112461;28;899;-69
2023/03/14 09:39:35;;;;;;;;;;;;;;;;;;5113103;28;895;-70
2023/03/14 09:42:03;;;;;;;;;;;;;;;;;;5111823;28;844;-70
2023/03/14 09:44:32;;;;;;;;;;;;;;;;;;5113361;28;809;-70
2023/03/14 09:47:00;;;;;;;;;;;;;;;;;;5111309;28;1202;-70
2023/03/14 09:49:31;;;;;;;;;;;;;;;;;;5112460;28;1974;-70
2023/03/14 09:51:58;;;;;;;;;;;;;;;;;;5113092;28;890;-70
2023/03/14 09:54:31;;;;;;;;;;;;;;;;;;5112234;28;872;-69
2023/03/14 09:56:56;;;;;;;;;;;;;;;;;;5113152;28;832;-70
2023/03/14 09:59:21;;;;;;;;;;;;;;;;;;5113124;28;860;-70
2023/03/14 10:01:47;;;;;;;;;;;;;;;;;;5113171;28;852;-69
2023/03/14 10:04:20;;;;;;;;;;;;;;;;;;5111651;28;907;-70
2023/03/14 10:06:47;;;;;;;;;;;;;;;;;;5113160;28;801;-69
2023/03/14 10:09:24;;;;;;;;;;;;;;;;;;5111173;28;1957;-69
2023/03/14 10:11:50;;;;;;;;;;;;;;;;;;5112612;28;1228;-69
2023/03/14 10:14:27;;;;;;;;;;;;;;;;;;5113244;28;942;-69
2023/03/14 10:16:53;;;;;;;;;;;;;;;;;;5115952;28;879;-69
2023/03/14 10:19:18;;;;;;;;;;;;;;;;;;5116002;28;903;-69
2023/03/14 10:21:49;;;;;;;;;;;;;;;;;;5115031;28;996;-69
2023/03/14 10:24:22;;;;;;;;;;;;;;;;;;5113580;28;879;-70
2023/03/14 10:26:48;;;;;;;;;;;;;;;;;;5114333;28;891;-70
2023/03/14 10:29:13;;;;;;;;;;;;;;;;;;5094951;28;1979;-71
2023/03/14 10:31:52;;;;;;;;;;;;;;;;;;5113406;28;883;-69
2023/03/14 10:34:37;;;;;;;;;;;;;;;;;;5113227;28;843;-69
2023/03/14 10:37:07;;;;;;;;;;;;;;;;;;5114131;28;899;-69
2023/03/14 10:39:46;;;;;;;;;;;;;;;;;;5111167;28;1331;-69
2023/03/14 10:42:25;;;;;;;;;;;;;;;;;;5112387;28;872;-69
2023/03/14 10:44:55;;;;;;;;;;;;;;;;;;5111285;28;1304;-69
2023/03/14 10:47:22;;;;;;;;;;;;;;;;;;5112546;28;828;-69
2023/03/14 10:49:48;;;;;;;;;;;;;;;;;;5111024;28;1914;-69
2023/03/14 10:52:13;;;;;;;;;;;;;;;;;;5111017;28;1221;-70
2023/03/14 10:54:38;;;;;;;;;;;;;;;;;;5112329;28;915;-69
2023/03/14 10:57:05;;;;;;;;;;;;;;;;;;5113544;28;891;-70
2023/03/14 10:59:35;;;;;;;;;;;;;;;;;;5116060;28;875;-69
2023/03/14 11:02:13;;;;;;;;;;;;;;;;;;5116113;28;1502;-70
2023/03/14 11:04:49;;;;;;;;;;;;;;;;;;5115805;28;895;-70
2023/03/14 11:07:36;;;;;;;;;;;;;;;;;;5115684;28;1074;-69
2023/03/14 11:10:01;;;;;;;;;;;;;;;;;;5103541;28;1218;-69
2023/03/14 11:12:38;;;;;;;;;;;;;;;;;;5115342;28;899;-70
2023/03/14 11:15:09;;;;;;;;;;;;;;;;;;5114779;28;1328;-70
2023/03/14 11:17:38;;;;;;;;;;;;;;;;;;5114240;28;1075;-69
2023/03/14 11:20:04;;;;;;;;;;;;;;;;;;5115844;28;844;-70
2023/03/14 11:22:37;;;;;;;;;;;;;;;;;;5115299;28;835;-70
2023/03/14 11:25:07;;;;;;;;;;;;;;;;;;5113634;28;1218;-70
2023/03/14 11:27:32;;;;;;;;;;;;;;;;;;5115267;28;1910;-69
2023/03/14 11:29:57;;;;;;;;;;;;;;;;;;5113690;28;1355;-70
2023/03/14 11:32:35;;;;;;;;;;;;;;;;;;5114614;28;935;-69
2023/03/14 11:35:03;;;;;;;;;;;;;;;;;;5115253;28;820;-70
2023/03/14 11:37:32;;;;;;;;;;;;;;;;;;5114659;28;769;-70
2023/03/14 11:40:16;;;;;;;;;;;;;;;;;;5114966;28;1010;-70
2023/03/14 11:42:42;;;;;;;;;;;;;;;;;;5114834;28;994;-70
2023/03/14 11:45:17;;;;;;;;;;;;;;;;;;5114662;28;903;-70
2023/03/14 11:47:44;;;;;;;;;;;;;;;;;;5115137;28;1981;-70
2023/03/14 11:50:18;;;;;;;;;;;;;;;;;;5114949;28;1000;-69
2023/03/14 11:52:52;;;;;;;;;;;;;;;;;;5115251;28;824;-69
2023/03/14 11:55:17;;;;;;;;;;;;;;;;;;5113661;28;894;-70
2023/03/14 11:57:44;;;;;;;;;;;;;;;;;;5113042;28;1197;-70
2023/03/14 12:00:22;;;;;;;;;;;;;;;;;;5113366;28;943;-69
2023/03/14 12:03:00;;;;;;;;;;;;;;;;;;5114666;28;936;-70
2023/03/14 12:05:31;;;;;;;;;;;;;;;;;;5114218;28;919;-69
2023/03/14 12:08:03;;;;;;;;;;;;;;;;;;5113900;28;1905;-70
2023/03/14 12:10:29;;;;;;;;;;;;;;;;;;5113491;28;1043;-69
2023/03/14 12:12:54;;;;;;;;;;;;;;;;;;5114464;27;801;-70
2023/03/14 12:15:21;;;;;;;;;;;;;;;;;;5113833;28;998;-70
2023/03/14 12:17:52;;;;;;;;;;;;;;;;;;5114727;28;844;-69
2023/03/14 12:20:20;;;;;;;;;;;;;;;;;;5112689;28;1239;-70
2023/03/14 12:23:06;;;;;;;;;;;;;;;;;;5112570;28;1206;-69
2023/03/14 12:25:33;;;;;;;;;;;;;;;;;;5112246;28;1221;-70
2023/03/14 12:28:17;;;;;;;;;;;;;;;;;;5112650;28;1958;-70
2023/03/14 12:30:42;;;;;;;;;;;;;;;;;;5113755;28;859;-70
2023/03/14 12:33:16;;;;;;;;;;;;;;;;;;5113706;28;823;-69
2023/03/14 12:35:43;;;;;;;;;;;;;;;;;;5113936;28;1022;-70
2023/03/14 12:38:14;;;;;;;;;;;;;;;;;;5112363;28;1173;-70
2023/03/14 12:40:47;;;;;;;;;;;;;;;;;;5112293;28;1387;-70
2023/03/14 12:43:33;;;;;;;;;;;;;;;;;;5113826;28;872;-70
2023/03/14 12:46:16;;;;;;;;;;;;;;;;;;5111621;28;1333;-70
2023/03/14 12:48:43;;;;;;;;;;;;;;;;;;5113461;28;1964;-70
2023/03/14 12:51:13;;;;;;;;;;;;;;;;;;5112346;28;1206;-70
2023/03/14 12:53:38;;;;;;;;;;;;;;;;;;5113511;28;884;-70
2023/03/14 12:56:22;;;;;;;;;;;;;;;;;;5113904;28;859;-70
2023/03/14 12:59:02;;;;;;;;;;;;;;;;;;5112121;28;1076;-70
2023/03/14 13:01:28;;;;;;;;;;;;;;;;;;5113573;28;882;-70
2023/03/14 13:03:58;;;;;;;;;;;;;;;;;;5113502;28;815;-70
2023/03/14 13:06:43;;;;;;;;;;;;;;;;;;5112977;28;903;-70
2023/03/14 13:09:27;;;;;;;;;;;;;;;;;;5110836;28;1918;-70
2023/03/14 13:11:56;;;;;;;;;;;;;;;;;;5111619;28;1235;-70
2023/03/14 13:14:22;;;;;;;;;;;;;;;;;;5113253;28;923;-70
2023/03/14 13:16:47;;;;;;;;;;;;;;;;;;5113299;28;903;-70
2023/03/14 13:19:19;;;;;;;;;;;;;;;;;;5113603;28;828;-70
2023/03/14 13:21:44;;;;;;;;;;;;;;;;;;5111420;28;1174;-70
2023/03/14 13:24:24;;;;;;;;;;;;;;;;;;5110916;28;1162;-70
2023/03/14 13:26:52;;;;;;;;;;;;;;;;;;5111745;28;1170;-70
2023/03/14 13:29:20;;;;;;;;;;;;;;;;;;5111840;28;1914;-70
2023/03/14 13:31:46;;;;;;;;;;;;;;;;;;5113257;28;1033;-70
2023/03/14 13:34:12;;;;;;;;;;;;;;;;;;5111897;28;1253;-70
2023/03/14 13:36:38;;;;;;;;;;;;;;;;;;5112767;28;879;-71
2023/03/14 13:39:06;;;;;;;;;;;;;;;;;;5111681;28;1265;-71
2023/03/14 13:41:32;;;;;;;;;;;;;;;;;;5111357;28;1189;-70
2023/03/14 13:44:06;;;;;;;;;;;;;;;;;;5113052;28;855;-70
2023/03/14 13:46:34;;;;;;;;;;;;;;;;;;5111383;28;1316;-71
2023/03/14 13:49:01;;;;;;;;;;;;;;;;;;5112814;28;1977;-70
2023/03/14 13:51:32;;;;;;;;;;;;;;;;;;5112656;28;911;-71
2023/03/14 13:53:59;;;;;;;;;;;;;;;;;;5112615;28;843;-70
2023/03/14 13:56:26;;;;;;;;;;;;;;;;;;5112578;28;820;-70
2023/03/14 13:58:51;;;;;;;;;;;;;;;;;;5112802;28;899;-70
2023/03/14 14:01:16;;;;;;;;;;;;;;;;;;5112217;28;861;-70
2023/03/14 14:03:43;;;;;;;;;;;;;;;;;;5112432;28;910;-71
2023/03/14 14:06:27;;;;;;;;;;;;;;;;;;5112799;28;831;-70
2023/03/14 14:08:54;;;;;;;;;;;;;;;;;;5111150;28;1969;-70
2023/03/14 14:11:32;;;;;;;;;;;;;;;;;;5111067;28;1222;-69
2023/03/14 14:13:57;;;;;;;;;;;;;;;;;;5112911;28;867;-70
2023/03/14 14:16:24;;;;;;;;;;;;;;;;;;5112486;28;824;-69
2023/03/14 14:18:51;;;;;;;;;;;;;;;;;;5111140;28;1209;-69
2023/03/14 14:21:16;;;;;;;;;;;;;;;;;;5111832;28;1368;-69
2023/03/14 14:23:42;;;;;;;;;;;;;;;;;;5113100;28;879;-70
2023/03/14 14:26:07;;;;;;;;;;;;;;;;;;5111636;28;1214;-69
2023/03/14 14:28:34;;;;;;;;;;;;;;;;;;5113024;28;1910;-70
2023/03/14 14:31:01;;;;;;;;;;;;;;;;;;5113205;28;828;-71
2023/03/14 14:33:26;;;;;;;;;;;;;;;;;;5116826;28;844;-71
2023/03/14 14:35:54;;;;;;;;;;;;;;;;;;5115583;28;1339;-71
2023/03/14 14:38:20;;;;;;;;;;;;;;;;;;5117190;28;1099;-71
2023/03/14 14:40:47;;;;;;;;;;;;;;;;;;5116134;28;1280;-71
2023/03/14 14:43:16;;;;;;;;;;;;;;;;;;5101995;28;1257;-71
2023/03/14 14:45:42;;;;;;;;;;;;;;;;;;5095748;28;1158;-71
2023/03/14 14:48:10;;;;;;;;;;;;;;;;;;5096756;28;1965;-71
2023/03/14 14:50:39;;;;;;;;;;;;;;;;;;5095527;28;1205;-71
2023/03/14 14:53:23;;;;;;;;;;;;;;;;;;5096321;28;1277;-71
2023/03/14 14:55:56;;;;;;;;;;;;;;;;;;5097248;28;852;-71
2023/03/14 14:58:24;;;;;;;;;;;;;;;;;;5097372;28;923;-71
2023/03/14 15:00:53;;;;;;;;;;;;;;;;;;5095652;28;1269;-71
2023/03/14 15:03:18;;;;;;;;;;;;;;;;;;5096555;28;828;-71
2023/03/14 15:05:43;;;;;;;;;;;;;;;;;;5097704;28;864;-71
2023/03/14 15:08:12;;;;;;;;;;;;;;;;;;5095626;28;1963;-71
2023/03/14 15:10:37;;;;;;;;;;;;;;;;;;5096493;28;1100;-71
2023/03/14 15:13:03;;;;;;;;;;;;;;;;;;5096015;28;896;-71
2023/03/14 15:15:28;;;;;;;;;;;;;;;;;;5096815;28;899;-71
2023/03/14 15:17:53;;;;;;;;;;;;;;;;;;5095898;28;821;-72
2023/03/14 15:20:19;;;;;;;;;;;;;;;;;;5095823;28;995;-72
2023/03/14 15:22:45;;;;;;;;;;;;;;;;;;5096345;28;836;-71
2023/03/14 15:25:10;;;;;;;;;;;;;;;;;;5096182;28;913;-71
2023/03/14 15:27:42;;;;;;;;;;;;;;;;;;5094511;28;1109;-72
2023/03/14 15:30:09;;;;;;;;;;;;;;;;;;5094670;28;1280;-72
2023/03/14 15:32:34;;;;;;;;;;;;;;;;;;5096488;28;959;-72
2023/03/14 15:35:00;;;;;;;;;;;;;;;;;;5095368;28;892;-72
2023/03/14 15:37:25;;;;;;;;;;;;;;;;;;5094602;28;1150;-70
2023/03/14 15:39:50;;;;;;;;;;;;;;;;;;5094502;28;1162;-71
2023/03/14 15:42:16;;;;;;;;;;;;;;;;;;5094119;28;1159;-71
2023/03/14 15:44:41;;;;;;;;;;;;;;;;;;5094062;28;1033;-71
2023/03/14 15:47:09;;;;;;;;;;;;;;;;;;5093467;28;1198;-71
2023/03/14 15:49:35;;;;;;;;;;;;;;;;;;5093520;28;1906;-71
2023/03/14 15:52:00;;;;;;;;;;;;;;;;;;5094775;28;813;-71
2023/03/14 15:54:28;;;;;;;;;;;;;;;;;;5093821;28;1214;-72
2023/03/14 15:56:55;;;;;;;;;;;;;;;;;;5094554;28;868;-72
2023/03/14 15:59:20;;;;;;;;;;;;;;;;;;5095016;28;646;-72
2023/03/14 16:01:47;;;;;;;;;;;;;;;;;;5093272;28;1130;-71
2023/03/14 16:04:13;;;;;;;;;;;;;;;;;;5093401;28;1154;-71
2023/03/14 16:06:38;;;;;;;;;;;;;;;;;;5095924;28;797;-72
2023/03/14 16:09:04;;;;;;;;;;;;;;;;;;5094657;28;1914;-72
2023/03/14 16:11:29;;;;;;;;;;;;;;;;;;5093659;28;1088;-72
2023/03/14 16:13:54;;;;;;;;;;;;;;;;;;5094232;28;1187;-72
2023/03/14 16:16:20;;;;;;;;;;;;;;;;;;5100517;28;1227;-71
2023/03/14 16:18:45;;;;;;;;;;;;;;;;;;5111564;28;1104;-72
2023/03/14 16:21:12;;;;;;;;;;;;;;;;;;5115263;28;820;-71
2023/03/14 16:23:38;;;;;;;;;;;;;;;;;;5114828;28;821;-71
2023/03/14 16:26:04;;;;;;;;;;;;;;;;;;5114667;28;941;-71
2023/03/14 16:28:29;;;;;;;;;;;;;;;;;;5114540;28;1902;-71
2023/03/14 16:31:01;;;;;;;;;;;;;;;;;;5114045;28;884;-71
2023/03/14 16:33:27;;;;;;;;;;;;;;;;;;5114255;28;761;-71
2023/03/14 16:35:53;;;;;;;;;;;;;;;;;;5114368;28;820;-71
2023/03/14 16:38:18;;;;;;;;;;;;;;;;;;5112808;28;1261;-70
2023/03/14 16:40:44;;;;;;;;;;;;;;;;;;5113688;28;1262;-71
2023/03/14 16:43:09;;;;;;;;;;;;;;;;;;5113254;28;930;-71
2023/03/14 16:45:36;;;;;;;;;;;;;;;;;;5114577;28;907;-71
2023/03/14 16:48:02;;;;;;;;;;;;;;;;;;5113247;28;1886;-71
2023/03/14 16:50:27;;;;;;;;;;;;;;;;;;5114544;28;785;-71
2023/03/14 16:52:54;;;;;;;;;;;;;;;;;;5113079;28;927;-71
2023/03/14 16:55:19;;;;;;;;;;;;;;;;;;5095949;28;1205;-70
2023/03/14 16:57:44;;;;;;;;;;;;;;;;;;5114146;28;883;-71
2023/03/14 17:00:10;;;;;;;;;;;;;;;;;;5112818;28;871;-70
2023/03/14 17:02:36;;;;;;;;;;;;;;;;;;5113958;28;856;-71
2023/03/14 17:05:03;;;;;;;;;;;;;;;;;;5114289;28;902;-71
2023/03/14 17:07:28;;;;;;;;;;;;;;;;;;5114536;28;887;-71
2023/03/14 17:09:53;;;;;;;;;;;;;;;;;;5095911;28;1971;-71
2023/03/14 17:12:19;;;;;;;;;;;;;;;;;;5112680;28;1375;-71